createdAt,value
2023-04-09T00:03:28.952Z,42.03
2023-04-09T00:08:34.353Z,48.35
2023-04-09T00:13:42.164Z,48.80
2023-04-09T00:18:47.571Z,57.40
2023-04-09T00:23:52.811Z,57.58
2023-04-09T00:29:00.920Z,49.15
2023-04-09T00:34:06.101Z,49.47
2023-04-09T00:39:11.320Z,51.20
2023-04-09T00:44:19.233Z,40.80
2023-04-09T00:49:25.150Z,43.85
2023-04-09T00:54:31.007Z,37.13
2023-04-09T00:59:38.744Z,38.08
2023-04-09T01:04:45.718Z,40.30
2023-04-09T01:09:55.836Z,41.60
2023-04-09T01:15:10.730Z,41.17
2023-04-09T01:20:19.569Z,40.47
2023-04-09T01:25:36.035Z,41.05
2023-04-09T01:30:44.180Z,42.92
2023-04-09T01:35:50.901Z,40.03
2023-04-09T01:40:56.765Z,37.42
2023-04-09T01:46:05.323Z,37.00
2023-04-09T01:51:10.619Z,36.35
2023-04-09T01:56:15.817Z,33.92
2023-04-09T02:01:28.109Z,34.22
2023-04-09T02:06:40.263Z,34.55
2023-04-09T02:11:46.210Z,43.78
2023-04-09T02:16:53.979Z,36.22
2023-04-09T02:21:59.064Z,41.58
2023-04-09T02:27:05.154Z,47.83
2023-04-09T02:32:13.005Z,42.08
2023-04-09T02:37:18.598Z,42.10
2023-04-09T02:42:23.809Z,40.72
2023-04-09T02:47:31.862Z,44.15
2023-04-09T02:52:36.998Z,40.80
2023-04-09T02:57:42.223Z,39.70
2023-04-09T03:02:50.209Z,40.97
2023-04-09T03:07:55.543Z,41.72
2023-04-09T03:13:00.702Z,41.53
2023-04-09T03:18:08.549Z,37.05
2023-04-09T03:23:14.234Z,38.63
2023-04-09T03:28:19.387Z,38.53
2023-04-09T03:33:27.349Z,39.97
2023-04-09T03:38:33.337Z,44.58
2023-04-09T03:43:38.590Z,41.72
2023-04-09T03:48:46.605Z,42.67
2023-04-09T03:53:51.835Z,42.63
2023-04-09T03:58:56.889Z,41.78
2023-04-09T04:04:04.648Z,45.33
2023-04-09T04:09:10.033Z,45.28
2023-04-09T04:14:15.249Z,44.25
2023-04-09T04:19:23.010Z,43.17
2023-04-09T04:24:28.322Z,49.20
2023-04-09T04:29:33.478Z,52.17
2023-04-09T04:34:41.308Z,48.80
2023-04-09T04:39:46.343Z,41.33
2023-04-09T04:44:51.518Z,40.28
2023-04-09T04:49:59.315Z,46.85
2023-04-09T04:55:04.469Z,41.42
2023-04-09T05:00:11.259Z,39.38
2023-04-09T05:05:18.958Z,41.40
2023-04-09T05:10:24.108Z,44.20
2023-04-09T05:15:29.397Z,39.22
2023-04-09T05:20:37.350Z,34.30
2023-04-09T05:25:42.567Z,34.75
2023-04-09T05:30:49.791Z,35.88
2023-04-09T05:35:57.800Z,39.13
2023-04-09T05:41:03.394Z,34.08
2023-04-09T05:46:09.230Z,36.53
2023-04-09T05:51:16.905Z,36.35
2023-04-09T05:56:23.029Z,38.83
2023-04-09T06:01:28.199Z,31.27
2023-04-09T06:06:35.973Z,33.90
2023-04-09T06:11:41.559Z,36.13
2023-04-09T06:16:47.265Z,37.85
2023-04-09T06:21:54.974Z,31.42
2023-04-09T06:27:00.157Z,36.35
2023-04-09T06:32:06.077Z,48.88
2023-04-09T06:37:13.816Z,37.88
2023-04-09T06:42:19.040Z,41.00
2023-04-09T06:47:24.171Z,34.78
2023-04-09T06:52:31.870Z,26.42
2023-04-09T06:57:38.102Z,24.13
2023-04-09T07:02:43.459Z,28.05
2023-04-09T07:07:51.308Z,22.00
2023-04-09T07:12:56.448Z,19.65
2023-04-09T07:18:01.623Z,18.33
2023-04-09T07:23:09.402Z,31.27
2023-04-09T07:28:14.726Z,16.15
2023-04-09T07:33:19.927Z,18.63
2023-04-09T07:38:27.797Z,15.48
2023-04-09T07:43:34.421Z,16.67
2023-04-09T07:48:39.631Z,16.70
2023-04-09T07:53:47.413Z,21.27
2023-04-09T07:58:52.929Z,18.25
2023-04-09T08:03:58.609Z,18.95
2023-04-09T08:09:06.547Z,21.70
2023-04-09T08:14:13.244Z,18.88
2023-04-09T08:19:19.449Z,17.85
2023-04-09T08:24:27.287Z,21.50
2023-04-09T08:29:32.698Z,18.70
2023-04-09T08:34:37.905Z,16.33
2023-04-09T08:39:45.727Z,17.02
2023-04-09T08:44:50.892Z,13.68
2023-04-09T08:49:56.486Z,15.05
2023-04-09T08:55:04.327Z,14.80
2023-04-09T09:00:13.466Z,21.58
2023-04-09T09:05:18.762Z,14.90
2023-04-09T09:10:40.499Z,13.88
2023-04-09T09:15:46.639Z,13.75
2023-04-09T09:20:51.731Z,11.63
2023-04-09T09:25:59.772Z,12.80
2023-04-09T09:31:12.184Z,14.75
2023-04-09T09:36:17.454Z,12.57
2023-04-09T09:41:26.228Z,14.23
2023-04-09T09:46:31.911Z,13.65
2023-04-09T09:51:38.776Z,14.15
2023-04-09T09:56:47.325Z,14.35
2023-04-09T10:01:55.110Z,14.32
2023-04-09T10:07:00.777Z,13.68
2023-04-09T10:12:10.662Z,13.90
2023-04-09T10:22:23.215Z,15.13
2023-04-09T10:27:31.564Z,16.52
2023-04-09T10:32:40.038Z,18.95
2023-04-09T10:37:52.595Z,16.45
2023-04-09T10:43:01.240Z,13.23
2023-04-09T10:48:06.469Z,15.55
2023-04-09T10:53:14.921Z,18.52
2023-04-09T10:58:22.989Z,14.48
2023-04-09T11:03:30.773Z,16.17
2023-04-09T11:08:38.301Z,15.20
2023-04-09T11:13:46.396Z,17.23
2023-04-09T11:18:51.774Z,15.63
2023-04-09T11:23:57.086Z,15.98
2023-04-09T11:29:08.502Z,15.65
2023-04-09T11:34:14.176Z,14.30
2023-04-09T11:39:19.289Z,15.40
2023-04-09T11:44:27.136Z,16.80
2023-04-09T11:49:32.357Z,17.05
2023-04-09T11:54:38.137Z,18.45
2023-04-09T11:59:45.895Z,19.13
2023-04-09T12:04:56.047Z,21.42
2023-04-09T12:10:07.177Z,17.88
2023-04-09T12:15:23.130Z,15.73
2023-04-09T12:20:36.507Z,19.40
2023-04-09T12:25:43.832Z,19.85
2023-04-09T12:30:51.606Z,18.60
2023-04-09T12:35:58.609Z,19.27
2023-04-09T12:41:03.993Z,20.38
2023-04-09T12:46:12.010Z,19.98
2023-04-09T12:51:17.365Z,16.98
2023-04-09T12:56:22.532Z,20.38
2023-04-09T13:01:30.293Z,20.35
2023-04-09T13:06:35.483Z,17.13
2023-04-09T13:11:41.013Z,19.90
2023-04-09T13:16:48.830Z,17.40
2023-04-09T13:21:53.929Z,23.23
2023-04-09T13:26:59.102Z,20.45
2023-04-09T13:32:07.788Z,16.77
2023-04-09T13:37:12.960Z,16.48
2023-04-09T13:42:18.141Z,15.95
2023-04-09T13:47:26.091Z,15.23
2023-04-09T13:52:31.767Z,18.17
2023-04-09T13:57:37.085Z,19.45
2023-04-09T14:02:44.955Z,23.77
2023-04-09T14:07:50.014Z,20.35
2023-04-09T14:12:55.306Z,40.05
2023-04-09T14:18:03.123Z,18.83
2023-04-09T14:23:08.436Z,19.02
2023-04-09T14:28:13.843Z,60.03
2023-04-09T14:33:21.675Z,19.52
2023-04-09T14:38:27.087Z,19.77
2023-04-09T14:43:32.206Z,18.98
2023-04-09T14:48:40.042Z,20.63
2023-04-09T14:53:45.198Z,19.27
2023-04-09T14:58:50.718Z,16.95
2023-04-09T15:03:58.806Z,21.45
2023-04-09T15:09:04.110Z,19.55
2023-04-09T15:14:09.359Z,17.35
2023-04-09T15:19:17.733Z,19.38
2023-04-09T15:24:22.903Z,21.05
2023-04-09T15:29:27.912Z,18.98
2023-04-09T15:34:35.811Z,21.38
2023-04-09T15:39:40.995Z,21.52
2023-04-09T15:44:46.161Z,24.65
2023-04-09T15:49:54.586Z,26.70
2023-04-09T15:54:59.686Z,21.27
2023-04-09T16:00:04.968Z,18.25
2023-04-09T16:05:13.272Z,21.05
2023-04-09T16:10:18.466Z,21.88
2023-04-09T16:15:23.647Z,20.65
2023-04-09T16:20:31.982Z,20.00
2023-04-09T16:25:38.090Z,21.98
2023-04-09T16:30:43.269Z,20.42
2023-04-09T16:35:51.116Z,24.92
2023-04-09T16:40:56.568Z,19.98
2023-04-09T16:46:02.073Z,23.92
2023-04-09T16:51:09.957Z,35.10
2023-04-09T16:56:15.320Z,28.77
2023-04-09T17:01:20.583Z,68.68
2023-04-09T17:06:28.471Z,75.97
2023-04-09T17:11:33.681Z,25.15
2023-04-09T17:16:39.002Z,25.15
2023-04-09T17:21:46.761Z,23.35
2023-04-09T17:26:51.947Z,25.05
2023-04-09T17:31:57.256Z,27.08
2023-04-09T17:37:04.961Z,24.98
2023-04-09T17:42:12.048Z,27.75
2023-04-09T17:47:17.361Z,81.43
2023-04-09T17:52:25.250Z,29.00
2023-04-09T17:57:30.391Z,36.25
2023-04-09T18:02:36.135Z,46.72
2023-04-09T18:07:44.084Z,39.25
2023-04-09T18:12:49.224Z,49.40
2023-04-09T18:17:54.752Z,41.10
2023-04-09T18:23:02.571Z,30.85
2023-04-09T18:28:08.221Z,37.35
2023-04-09T18:33:13.347Z,30.73
2023-04-09T18:38:21.438Z,27.08
2023-04-09T18:43:26.634Z,25.95
2023-04-09T18:48:32.142Z,25.55
2023-04-09T18:53:39.918Z,27.05
2023-04-09T18:58:45.152Z,29.35
2023-04-09T19:03:50.358Z,24.33
2023-04-09T19:08:59.312Z,27.60
2023-04-09T19:14:04.534Z,45.63
2023-04-09T19:19:09.624Z,31.80
2023-04-09T19:24:17.540Z,29.42
2023-04-09T19:29:22.675Z,30.38
2023-04-09T19:34:27.940Z,30.48
2023-04-09T19:39:35.811Z,29.27
2023-04-09T19:44:40.944Z,26.48
2023-04-09T19:49:46.000Z,27.13
2023-04-09T19:54:57.054Z,28.60
2023-04-09T20:00:02.199Z,30.95
2023-04-09T20:05:08.010Z,29.33
2023-04-09T20:10:16.106Z,31.63
2023-04-09T20:15:22.829Z,30.75
2023-04-09T20:20:27.945Z,34.20
2023-04-09T20:25:37.148Z,29.42
2023-04-09T20:30:43.101Z,31.95
2023-04-09T20:35:48.578Z,30.95
2023-04-09T20:40:56.518Z,31.58
2023-04-09T20:46:01.788Z,30.48
2023-04-09T20:51:11.743Z,31.77
2023-04-09T20:56:19.469Z,30.20
2023-04-09T21:01:27.493Z,34.75
2023-04-09T21:06:32.872Z,37.45
2023-04-09T21:11:40.577Z,35.00
2023-04-09T21:16:46.122Z,32.25
2023-04-09T21:21:51.740Z,35.95
2023-04-09T21:26:59.575Z,31.95
2023-04-09T21:32:04.674Z,35.72
2023-04-09T21:37:09.822Z,34.17
2023-04-09T21:42:17.456Z,36.10
2023-04-09T21:47:23.044Z,34.67
2023-04-09T21:52:28.521Z,37.90
2023-04-09T21:57:36.542Z,31.42
2023-04-09T22:02:42.015Z,31.42
2023-04-09T22:07:47.193Z,30.02
2023-04-09T22:12:55.722Z,34.42
2023-04-09T22:18:00.923Z,33.67
2023-04-09T22:23:06.145Z,35.35
2023-04-09T22:28:16.802Z,34.88
2023-04-09T22:33:21.906Z,31.67
2023-04-09T22:38:27.069Z,35.45
2023-04-09T22:43:34.799Z,36.40
2023-04-09T22:48:44.605Z,36.78
2023-04-09T22:53:50.935Z,37.50
2023-04-09T22:58:58.630Z,32.10
2023-04-09T23:04:03.909Z,30.92
2023-04-09T23:09:08.991Z,34.35
2023-04-09T23:14:16.985Z,34.53
2023-04-09T23:19:22.200Z,31.63
2023-04-09T23:24:27.420Z,32.38
2023-04-09T23:29:35.187Z,40.53
2023-04-09T23:34:41.876Z,34.15
2023-04-09T23:39:47.030Z,33.55
2023-04-09T23:44:54.805Z,35.47
2023-04-09T23:49:59.963Z,33.42
2023-04-09T23:55:05.295Z,34.50
